createdAt,value
2022-09-12T00:01:50.098Z,20.10
2022-09-12T00:04:16.501Z,20.08
2022-09-12T00:06:43.352Z,20.08
2022-09-12T00:09:10.955Z,20.07
2022-09-12T00:11:37.556Z,20.07
2022-09-12T00:14:04.591Z,20.06
2022-09-12T00:16:33.624Z,20.05
2022-09-12T00:19:00.371Z,20.07
2022-09-12T00:21:27.081Z,20.08
2022-09-12T00:23:53.514Z,20.09
2022-09-12T00:26:20.654Z,20.10
2022-09-12T00:28:47.638Z,20.10
2022-09-12T00:31:14.991Z,20.10
2022-09-12T00:33:43.268Z,20.10
2022-09-12T00:36:10.729Z,20.10
2022-09-12T00:38:37.033Z,20.09
2022-09-12T00:41:03.364Z,20.09
2022-09-12T00:43:34.186Z,20.07
2022-09-12T00:46:02.654Z,20.05
2022-09-12T00:48:31.890Z,20.04
2022-09-12T00:50:59.701Z,20.02
2022-09-12T00:53:26.193Z,20.02
2022-09-12T00:55:53.145Z,20.01
2022-09-12T00:58:21.573Z,20.02
2022-09-12T01:00:48.014Z,20.00
2022-09-12T01:03:15.996Z,19.99
2022-09-12T01:05:44.149Z,20.01
2022-09-12T01:08:11.897Z,20.01
2022-09-12T01:10:39.821Z,20.01
2022-09-12T01:13:09.602Z,20.01
2022-09-12T01:15:37.051Z,20.00
2022-09-12T01:18:09.929Z,20.02
2022-09-12T01:20:50.136Z,20.03
2022-09-12T01:23:24.849Z,20.03
2022-09-12T01:26:00.398Z,20.03
2022-09-12T01:28:36.246Z,20.03
2022-09-12T01:31:06.560Z,20.03
2022-09-12T01:33:40.248Z,20.03
2022-09-12T01:36:15.172Z,20.01
2022-09-12T01:38:46.532Z,20.01
2022-09-12T01:41:20.790Z,20.02
2022-09-12T01:43:49.588Z,19.99
2022-09-12T01:46:19.156Z,19.98
2022-09-12T01:48:47.821Z,19.97
2022-09-12T01:51:18.604Z,19.96
2022-09-12T01:53:48.466Z,19.94
2022-09-12T01:56:17.686Z,19.96
2022-09-12T01:58:46.754Z,19.97
2022-09-12T02:01:15.955Z,19.97
2022-09-12T02:03:46.650Z,19.96
2022-09-12T02:06:17.783Z,19.98
2022-09-12T02:08:46.919Z,19.97
2022-09-12T02:11:13.594Z,19.98
2022-09-12T02:13:41.658Z,19.97
2022-09-12T02:16:09.650Z,19.97
2022-09-12T02:18:38.739Z,19.98
2022-09-12T02:21:07.390Z,19.96
2022-09-12T02:23:36.635Z,19.95
2022-09-12T02:26:05.842Z,19.94
2022-09-12T02:28:34.368Z,19.94
2022-09-12T02:31:04.813Z,19.93
2022-09-12T02:33:33.246Z,19.93
2022-09-12T02:36:04.563Z,19.93
2022-09-12T02:38:35.437Z,19.93
2022-09-12T02:41:01.823Z,19.94
2022-09-12T02:43:28.225Z,19.92
2022-09-12T02:45:54.614Z,19.92
2022-09-12T02:48:22.721Z,19.93
2022-09-12T02:50:49.187Z,19.93
2022-09-12T02:53:15.638Z,19.93
2022-09-12T02:55:43.663Z,19.92
2022-09-12T02:58:11.806Z,19.92
2022-09-12T03:00:42.015Z,19.91
2022-09-12T03:03:15.106Z,19.92
2022-09-12T03:05:44.996Z,19.92
2022-09-12T03:08:19.517Z,19.92
2022-09-12T03:10:58.333Z,19.91
2022-09-12T03:13:28.923Z,19.91
2022-09-12T03:16:03.859Z,19.89
2022-09-12T03:18:35.458Z,19.88
2022-09-12T03:21:04.709Z,19.89
2022-09-12T03:23:33.168Z,19.87
2022-09-12T03:26:05.631Z,19.87
2022-09-12T03:28:32.931Z,19.86
2022-09-12T03:30:59.355Z,19.86
2022-09-12T03:33:25.744Z,19.85
2022-09-12T03:35:52.485Z,19.85
2022-09-12T03:38:19.088Z,19.86
2022-09-12T03:40:45.449Z,19.86
2022-09-12T03:43:13.077Z,19.87
2022-09-12T03:45:39.422Z,19.84
2022-09-12T03:48:06.523Z,19.84
2022-09-12T03:50:32.868Z,19.82
2022-09-12T03:52:59.515Z,19.82
2022-09-12T03:55:25.842Z,19.81
2022-09-12T03:57:52.727Z,19.80
2022-09-12T04:00:20.590Z,19.78
2022-09-12T04:02:47.019Z,19.78
2022-09-12T04:05:13.395Z,19.81
2022-09-12T04:07:39.743Z,19.81
2022-09-12T04:10:06.434Z,19.79
2022-09-12T04:12:32.794Z,19.79
2022-09-12T04:14:59.117Z,19.82
2022-09-12T04:17:26.801Z,19.81
2022-09-12T04:19:53.121Z,19.83
2022-09-12T04:22:19.420Z,19.84
2022-09-12T04:24:45.741Z,19.87
2022-09-12T04:27:12.052Z,19.89
2022-09-12T04:29:38.486Z,19.88
2022-09-12T04:32:04.925Z,19.89
2022-09-12T04:34:32.660Z,19.88
2022-09-12T04:36:59.000Z,19.89
2022-09-12T04:39:25.443Z,19.89
2022-09-12T04:41:51.802Z,19.89
2022-09-12T04:44:18.389Z,19.90
2022-09-12T04:46:46.504Z,19.91
2022-09-12T04:49:13.696Z,19.91
2022-09-12T04:51:41.676Z,19.90
2022-09-12T04:54:11.659Z,19.90
2022-09-12T04:56:39.061Z,19.90
2022-09-12T04:59:05.586Z,19.91
2022-09-12T05:01:32.401Z,19.92
2022-09-12T05:03:58.916Z,19.92
2022-09-12T05:06:26.675Z,19.91
2022-09-12T05:08:54.749Z,19.91
2022-09-12T05:11:25.481Z,19.92
2022-09-12T05:13:53.142Z,19.92
2022-09-12T05:16:20.199Z,19.92
2022-09-12T05:18:46.944Z,19.91
2022-09-12T05:21:14.606Z,19.93
2022-09-12T05:23:41.331Z,19.92
2022-09-12T05:26:12.879Z,19.93
2022-09-12T05:28:39.220Z,19.91
2022-09-12T05:31:06.648Z,19.84
2022-09-12T05:33:33.683Z,19.73
2022-09-12T05:36:00.334Z,19.68
2022-09-12T05:38:27.057Z,19.60
2022-09-12T05:40:53.399Z,19.63
2022-09-12T05:43:20.986Z,19.64
2022-09-12T05:45:47.373Z,19.65
2022-09-12T05:48:13.700Z,19.63
2022-09-12T05:50:40.012Z,19.61
2022-09-12T05:53:06.385Z,19.58
2022-09-12T05:55:32.689Z,19.56
2022-09-12T05:57:59.039Z,19.75
2022-09-12T06:00:29.362Z,19.98
2022-09-12T06:02:59.209Z,20.06
2022-09-12T06:05:25.621Z,20.10
2022-09-12T06:07:51.963Z,20.14
2022-09-12T06:10:18.462Z,20.15
2022-09-12T06:12:44.804Z,20.16
2022-09-12T06:15:11.147Z,20.21
2022-09-12T06:17:38.772Z,20.19
2022-09-12T06:20:05.361Z,20.20
2022-09-12T06:22:31.691Z,20.11
2022-09-12T06:24:58.223Z,19.99
2022-09-12T06:27:24.846Z,19.92
2022-09-12T06:29:51.226Z,19.94
2022-09-12T06:32:17.581Z,20.02
2022-09-12T06:34:45.248Z,20.19
2022-09-12T06:37:11.649Z,20.21
2022-09-12T06:39:38.025Z,20.30
2022-09-12T06:42:04.632Z,20.26
2022-09-12T06:44:30.953Z,20.26
2022-09-12T06:46:57.300Z,20.26
2022-09-12T06:49:23.634Z,20.32
2022-09-12T06:51:51.317Z,20.03
2022-09-12T06:54:17.637Z,19.90
2022-09-12T06:56:44.013Z,19.91
2022-09-12T06:59:10.344Z,19.85
2022-09-12T07:01:36.761Z,19.77
2022-09-12T07:04:03.985Z,19.89
2022-09-12T07:06:34.909Z,20.03
2022-09-12T07:09:03.956Z,20.08
2022-09-12T07:11:31.121Z,20.15
2022-09-12T07:13:58.800Z,20.14
2022-09-12T07:16:25.484Z,20.20
2022-09-12T07:18:52.233Z,20.17
2022-09-12T07:21:18.593Z,20.31
2022-09-12T07:23:44.936Z,20.20
2022-09-12T07:26:13.475Z,20.15
2022-09-12T07:28:40.075Z,20.11
2022-09-12T07:31:07.149Z,20.14
2022-09-12T07:33:33.531Z,20.18
2022-09-12T07:36:00.757Z,20.25
2022-09-12T07:38:27.114Z,20.42
2022-09-12T07:40:53.503Z,20.39
2022-09-12T07:43:21.108Z,20.41
2022-09-12T07:45:47.582Z,20.44
2022-09-12T07:48:13.940Z,20.48
2022-09-12T07:50:44.978Z,20.44
2022-09-12T07:53:11.503Z,20.66
2022-09-12T07:55:37.847Z,20.55
2022-09-12T07:58:04.167Z,20.48
2022-09-12T08:00:31.790Z,20.42
2022-09-12T08:02:58.126Z,20.43
2022-09-12T08:05:24.447Z,20.44
2022-09-12T08:07:52.713Z,20.52
2022-09-12T08:10:22.219Z,20.38
2022-09-12T08:12:48.676Z,20.40
2022-09-12T08:15:15.023Z,20.42
2022-09-12T08:17:42.677Z,20.52
2022-09-12T08:20:09.139Z,20.58
2022-09-12T08:22:35.500Z,20.86
2022-09-12T08:25:01.853Z,21.13
2022-09-12T08:27:28.162Z,21.39
2022-09-12T08:29:54.484Z,21.40
2022-09-12T08:32:20.844Z,21.52
2022-09-12T08:34:48.466Z,21.59
2022-09-12T08:37:14.816Z,21.68
2022-09-12T08:39:41.162Z,21.58
2022-09-12T08:44:47.251Z,20.90
2022-09-12T08:47:17.753Z,20.87
2022-09-12T08:49:48.632Z,20.86
2022-09-12T08:52:19.051Z,20.85
2022-09-12T08:54:45.499Z,20.83
2022-09-12T08:57:11.908Z,20.81
2022-09-12T08:59:39.651Z,20.81
2022-09-12T09:02:12.984Z,20.78
2022-09-12T09:04:48.017Z,20.76
2022-09-12T09:07:22.717Z,20.76
2022-09-12T09:09:56.480Z,20.72
2022-09-12T09:12:25.426Z,20.70
2022-09-12T09:15:03.337Z,20.71
2022-09-12T09:17:32.268Z,20.71
2022-09-12T09:20:03.097Z,20.72
2022-09-12T09:22:36.175Z,20.72
2022-09-12T09:25:05.246Z,20.68
2022-09-12T09:27:41.546Z,20.98
2022-09-12T09:30:12.852Z,21.30
2022-09-12T09:32:40.864Z,21.36
2022-09-12T09:35:12.380Z,21.54
2022-09-12T09:37:42.001Z,21.57
2022-09-12T09:40:15.603Z,21.70
2022-09-12T09:42:45.316Z,21.79
2022-09-12T09:45:13.978Z,21.80
2022-09-12T09:47:40.328Z,21.76
2022-09-12T09:50:07.070Z,21.79
2022-09-12T09:52:35.292Z,21.82
2022-09-12T09:55:03.177Z,21.63
2022-09-12T09:57:44.385Z,21.40
2022-09-12T10:00:25.557Z,21.18
2022-09-12T10:03:00.900Z,21.17
2022-09-12T10:05:27.435Z,21.15
2022-09-12T10:07:53.911Z,21.10
2022-09-12T10:10:21.563Z,21.08
2022-09-12T10:12:48.183Z,21.04
2022-09-12T10:15:17.855Z,21.04
2022-09-12T10:17:45.044Z,21.01
2022-09-12T10:20:26.320Z,21.04
2022-09-12T10:22:52.611Z,20.91
2022-09-12T10:25:19.620Z,20.88
2022-09-12T10:27:52.296Z,20.82
2022-09-12T10:30:19.515Z,20.81
2022-09-12T10:32:46.684Z,20.79
2022-09-12T10:35:17.208Z,20.75
2022-09-12T10:37:52.417Z,20.75
2022-09-12T10:40:22.548Z,20.71
2022-09-12T10:42:51.650Z,20.75
2022-09-12T10:45:21.240Z,21.07
2022-09-12T10:47:48.033Z,21.25
2022-09-12T10:50:23.383Z,21.31
2022-09-12T10:52:49.869Z,21.34
2022-09-12T10:55:16.601Z,21.44
2022-09-12T10:57:58.641Z,21.34
2022-09-12T11:00:25.070Z,21.21
2022-09-12T11:02:57.133Z,21.21
2022-09-12T11:05:35.458Z,21.32
2022-09-12T11:08:08.361Z,21.44
2022-09-12T11:10:44.290Z,21.29
2022-09-12T11:13:17.032Z,21.11
2022-09-12T11:15:55.670Z,20.95
2022-09-12T11:18:29.482Z,20.92
2022-09-12T11:21:02.133Z,20.91
2022-09-12T11:23:43.405Z,20.85
2022-09-12T11:26:16.818Z,20.84
2022-09-12T11:28:52.430Z,20.83
2022-09-12T11:31:40.113Z,20.80
2022-09-12T11:34:08.764Z,20.80
2022-09-12T11:36:39.203Z,20.77
2022-09-12T11:39:10.680Z,20.90
2022-09-12T11:41:38.154Z,20.96
2022-09-12T11:44:10.300Z,20.94
2022-09-12T11:46:37.814Z,20.93
2022-09-12T11:49:07.005Z,20.91
2022-09-12T11:51:35.663Z,20.94
2022-09-12T11:54:06.584Z,21.01
2022-09-12T11:56:34.425Z,20.95
2022-09-12T11:59:03.056Z,20.97
2022-09-12T12:01:37.431Z,20.91
2022-09-12T12:04:11.381Z,20.92
2022-09-12T12:06:43.357Z,20.89
2022-09-12T12:09:11.236Z,20.90
2022-09-12T12:11:39.547Z,20.90
2022-09-12T12:14:07.632Z,20.91
2022-09-12T12:16:37.788Z,20.90
2022-09-12T12:19:10.471Z,20.90
2022-09-12T12:21:40.170Z,20.93
2022-09-12T12:24:15.752Z,20.89
2022-09-12T12:26:43.933Z,20.92
2022-09-12T12:29:10.669Z,20.98
2022-09-12T12:32:08.445Z,20.99
2022-09-12T12:34:35.999Z,20.97
2022-09-12T12:37:32.214Z,20.94
2022-09-12T12:39:59.627Z,20.89
2022-09-12T12:42:36.214Z,20.91
2022-09-12T12:45:03.154Z,20.88
2022-09-12T12:47:32.868Z,20.90
2022-09-12T12:50:01.546Z,20.88
2022-09-12T12:52:29.833Z,20.89
2022-09-12T12:54:57.638Z,20.93
2022-09-12T12:57:37.702Z,20.90
2022-09-12T13:00:05.676Z,20.89
2022-09-12T13:02:35.883Z,20.88
2022-09-12T13:05:05.228Z,20.95
2022-09-12T13:07:33.677Z,20.94
2022-09-12T13:10:01.063Z,20.89
2022-09-12T13:12:29.001Z,20.86
2022-09-12T13:14:56.092Z,20.89
2022-09-12T13:17:24.624Z,20.87
2022-09-12T13:20:10.651Z,20.86
2022-09-12T13:22:41.351Z,20.87
2022-09-12T13:25:18.580Z,20.86
2022-09-12T13:27:56.530Z,20.93
2022-09-12T13:30:27.193Z,20.97
2022-09-12T13:32:53.742Z,20.98
2022-09-12T13:35:23.736Z,20.96
2022-09-12T13:37:54.500Z,20.96
2022-09-12T13:40:28.827Z,20.98
2022-09-12T13:43:07.668Z,20.98
2022-09-12T13:45:37.398Z,21.00
2022-09-12T13:48:04.055Z,20.98
2022-09-12T13:50:33.196Z,21.00
2022-09-12T13:53:01.574Z,21.01
2022-09-12T13:55:29.958Z,21.01
2022-09-12T13:57:57.459Z,21.03
2022-09-12T14:00:23.924Z,21.03
2022-09-12T14:02:50.298Z,21.01
2022-09-12T14:05:19.558Z,21.09
2022-09-12T14:07:51.723Z,21.03
2022-09-12T14:10:21.597Z,21.02
2022-09-12T14:12:48.026Z,20.99
2022-09-12T14:15:16.801Z,21.01
2022-09-12T14:17:48.707Z,21.12
2022-09-12T14:20:15.881Z,21.10
2022-09-12T14:22:42.364Z,21.07
2022-09-12T14:25:14.448Z,21.05
2022-09-12T14:27:42.597Z,21.04
2022-09-12T14:30:21.159Z,21.03
2022-09-12T14:33:02.320Z,21.02
2022-09-12T14:35:28.832Z,21.00
2022-09-12T14:37:55.514Z,21.12
2022-09-12T14:40:25.873Z,21.21
2022-09-12T14:42:52.648Z,21.10
2022-09-12T14:45:23.849Z,21.13
2022-09-12T14:47:51.060Z,21.10
2022-09-12T14:50:18.549Z,21.01
2022-09-12T14:52:44.862Z,20.97
2022-09-12T14:55:23.242Z,20.96
2022-09-12T14:58:06.603Z,20.95
2022-09-12T15:00:33.047Z,20.93
2022-09-12T15:03:19.319Z,20.94
2022-09-12T15:05:48.879Z,20.92
2022-09-12T15:08:15.212Z,20.92
2022-09-12T15:10:41.563Z,20.92
2022-09-12T15:13:17.514Z,20.91
2022-09-12T15:15:44.859Z,20.90
2022-09-12T15:18:11.288Z,20.86
2022-09-12T15:20:38.343Z,20.87
2022-09-12T15:23:05.294Z,20.88
2022-09-12T15:25:31.841Z,20.87
2022-09-12T15:27:58.194Z,20.89
2022-09-12T15:30:25.931Z,20.86
2022-09-12T15:32:52.316Z,20.86
2022-09-12T15:35:20.324Z,20.84
2022-09-12T15:37:46.655Z,21.03
2022-09-12T15:40:13.291Z,21.34
2022-09-12T15:42:39.841Z,21.54
2022-09-12T15:45:13.875Z,21.64
2022-09-12T15:47:41.543Z,21.72
2022-09-12T15:50:08.196Z,21.75
2022-09-12T15:52:34.557Z,21.79
2022-09-12T15:55:00.902Z,21.88
2022-09-12T15:57:27.341Z,21.93
2022-09-12T15:59:53.666Z,21.96
2022-09-12T16:02:20.239Z,22.00
2022-09-12T16:04:47.912Z,21.63
2022-09-12T16:07:14.395Z,21.33
2022-09-12T16:09:40.728Z,21.13
2022-09-12T16:12:07.078Z,21.06
2022-09-12T16:14:33.443Z,21.04
2022-09-12T16:16:59.872Z,21.05
2022-09-12T16:19:26.267Z,21.04
2022-09-12T16:21:54.128Z,21.01
2022-09-12T16:24:20.485Z,21.00
2022-09-12T16:26:46.893Z,20.97
2022-09-12T16:29:13.439Z,20.96
2022-09-12T16:31:39.746Z,20.95
2022-09-12T16:34:06.305Z,20.94
2022-09-12T16:36:32.673Z,20.93
2022-09-12T16:39:00.387Z,20.89
2022-09-12T16:41:26.776Z,20.87
2022-09-12T16:43:53.871Z,20.88
2022-09-12T16:46:21.577Z,20.86
2022-09-12T16:48:52.100Z,20.84
2022-09-12T16:51:20.041Z,20.84
2022-09-12T16:53:46.743Z,20.82
2022-09-12T16:56:14.484Z,20.79
2022-09-12T16:58:42.158Z,20.78
2022-09-12T17:01:09.568Z,20.76
2022-09-12T17:03:36.096Z,20.75
2022-09-12T17:06:03.892Z,20.75
2022-09-12T17:08:30.535Z,20.73
2022-09-12T17:10:59.236Z,20.71
2022-09-12T17:13:41.129Z,20.96
2022-09-12T17:16:13.423Z,21.28
2022-09-12T17:18:39.800Z,21.42
2022-09-12T17:21:06.360Z,21.49
2022-09-12T17:23:32.693Z,21.56
2022-09-12T17:25:59.612Z,21.61
2022-09-12T17:28:27.533Z,21.66
2022-09-12T17:30:55.431Z,21.68
2022-09-12T17:33:21.898Z,21.72
2022-09-12T17:35:48.311Z,21.78
2022-09-12T17:38:18.621Z,21.78
2022-09-12T17:40:58.971Z,21.45
2022-09-12T17:43:27.605Z,21.21
2022-09-12T17:45:55.424Z,21.02
2022-09-12T17:48:21.769Z,21.01
2022-09-12T17:50:48.056Z,20.97
2022-09-12T17:53:14.390Z,20.95
2022-09-12T17:55:40.710Z,20.93
2022-09-12T17:58:07.073Z,20.91
2022-09-12T18:00:34.835Z,20.89
2022-09-12T18:03:01.243Z,20.84
2022-09-12T18:05:27.689Z,20.81
2022-09-12T18:07:54.051Z,20.80
2022-09-12T18:10:20.519Z,20.81
2022-09-12T18:12:46.850Z,20.79
2022-09-12T18:15:13.183Z,20.77
2022-09-12T18:17:40.773Z,20.77
2022-09-12T18:20:07.367Z,20.77
2022-09-12T18:22:33.708Z,20.73
2022-09-12T18:25:00.028Z,20.72
2022-09-12T18:27:26.338Z,20.71
2022-09-12T18:30:10.636Z,20.69
2022-09-12T18:32:38.953Z,20.67
2022-09-12T18:35:07.036Z,20.65
2022-09-12T18:37:33.487Z,20.68
2022-09-12T18:39:59.869Z,21.03
2022-09-12T18:42:26.297Z,21.25
2022-09-12T18:44:52.648Z,21.33
2022-09-12T18:47:18.981Z,21.41
2022-09-12T18:49:45.282Z,21.45
2022-09-12T18:52:12.875Z,21.49
2022-09-12T18:54:39.178Z,21.52
2022-09-12T18:57:05.527Z,21.58
2022-09-12T18:59:31.865Z,21.62
2022-09-12T19:01:58.226Z,21.62
2022-09-12T19:04:24.619Z,21.43
2022-09-12T19:06:50.987Z,21.21
2022-09-12T19:09:19.376Z,21.00
2022-09-12T19:11:46.547Z,20.88
2022-09-12T19:14:12.969Z,20.85
2022-09-12T19:16:39.288Z,20.85
2022-09-12T19:19:05.737Z,20.80
2022-09-12T19:21:33.040Z,20.79
2022-09-12T19:24:00.253Z,20.77
2022-09-12T19:26:27.948Z,20.77
2022-09-12T19:28:54.745Z,20.75
2022-09-12T19:31:21.920Z,20.72
2022-09-12T19:33:48.733Z,20.71
2022-09-12T19:36:43.415Z,20.71
2022-09-12T19:39:03.193Z,20.69
2022-09-12T19:41:30.899Z,20.66
2022-09-12T19:43:57.415Z,20.64
2022-09-12T19:46:24.898Z,20.65
2022-09-12T19:48:51.620Z,20.92
2022-09-12T19:51:18.999Z,21.16
2022-09-12T19:53:45.652Z,21.27
2022-09-12T19:56:12.996Z,21.33
2022-09-12T19:58:41.493Z,21.38
2022-09-12T20:01:08.701Z,21.42
2022-09-12T20:03:35.056Z,21.46
2022-09-12T20:06:01.881Z,21.52
2022-09-12T20:08:28.229Z,21.55
2022-09-12T20:10:57.018Z,21.57
2022-09-12T20:13:23.622Z,21.42
2022-09-12T20:15:51.286Z,21.18
2022-09-12T20:18:18.640Z,20.99
2022-09-12T20:20:45.049Z,20.86
2022-09-12T20:23:11.491Z,20.83
2022-09-12T20:25:37.829Z,20.81
2022-09-12T20:28:04.178Z,20.80
2022-09-12T20:30:30.494Z,20.78
2022-09-12T20:32:58.075Z,20.78
2022-09-12T20:35:24.448Z,20.75
2022-09-12T20:37:50.752Z,20.73
2022-09-12T20:40:17.183Z,20.71
2022-09-12T20:42:43.620Z,20.70
2022-09-12T20:45:10.122Z,20.69
2022-09-12T20:47:36.436Z,20.67
2022-09-12T20:50:04.354Z,20.66
2022-09-12T20:52:30.699Z,20.65
2022-09-12T20:54:57.124Z,20.70
2022-09-12T20:57:23.451Z,21.00
2022-09-12T20:59:49.785Z,21.20
2022-09-12T21:02:16.681Z,21.30
2022-09-12T21:04:43.135Z,21.32
2022-09-12T21:07:10.744Z,21.41
2022-09-12T21:09:37.108Z,21.42
2022-09-12T21:12:03.699Z,21.50
2022-09-12T21:14:30.001Z,21.55
2022-09-12T21:16:56.304Z,21.56
2022-09-12T21:19:22.653Z,21.54
2022-09-12T21:21:49.024Z,21.27
2022-09-12T21:24:16.794Z,21.07
2022-09-12T21:26:43.239Z,20.89
2022-09-12T21:29:09.579Z,20.85
2022-09-12T21:31:35.952Z,20.82
2022-09-12T21:34:02.362Z,20.83
2022-09-12T21:36:28.684Z,20.79
2022-09-12T21:38:57.173Z,20.76
2022-09-12T21:41:24.916Z,20.73
2022-09-12T21:43:51.361Z,20.72
2022-09-12T21:46:17.735Z,20.71
2022-09-12T21:48:44.277Z,20.68
2022-09-12T21:51:10.931Z,20.67
2022-09-12T21:53:37.612Z,20.66
2022-09-12T21:56:04.656Z,20.65
2022-09-12T21:58:32.347Z,20.64
2022-09-12T22:00:58.904Z,20.61
2022-09-12T22:03:25.419Z,20.61
2022-09-12T22:05:56.063Z,20.78
2022-09-12T22:08:22.389Z,21.03
2022-09-12T22:10:48.875Z,21.17
2022-09-12T22:13:15.284Z,21.23
2022-09-12T22:15:44.392Z,21.28
2022-09-12T22:18:10.699Z,21.31
2022-09-12T22:20:37.017Z,21.37
2022-09-12T22:23:03.449Z,21.48
2022-09-12T22:25:29.904Z,21.46
2022-09-12T22:27:56.273Z,21.50
2022-09-12T22:30:23.050Z,21.53
2022-09-12T22:32:50.838Z,21.37
2022-09-12T22:35:17.717Z,21.18
2022-09-12T22:37:44.150Z,21.00
2022-09-12T22:40:11.111Z,20.90
2022-09-12T22:42:37.493Z,20.86
2022-09-12T22:45:04.063Z,20.83
2022-09-12T22:47:30.485Z,20.80
2022-09-12T22:49:58.077Z,20.77
2022-09-12T22:52:24.418Z,20.74
2022-09-12T22:54:50.779Z,20.73
2022-09-12T22:57:17.544Z,20.71
2022-09-12T22:59:43.881Z,20.68
2022-09-12T23:02:10.445Z,20.66
2022-09-12T23:04:36.716Z,20.64
2022-09-12T23:07:04.348Z,20.64
2022-09-12T23:09:34.715Z,20.81
2022-09-12T23:12:01.904Z,21.09
2022-09-12T23:14:28.202Z,21.23
2022-09-12T23:16:56.342Z,21.26
2022-09-12T23:19:22.679Z,21.35
2022-09-12T23:21:49.005Z,21.39
2022-09-12T23:24:16.606Z,21.43
2022-09-12T23:26:42.927Z,21.47
2022-09-12T23:29:09.329Z,21.50
2022-09-12T23:31:35.718Z,21.53
2022-09-12T23:34:03.271Z,21.44
2022-09-12T23:36:29.905Z,21.21
2022-09-12T23:38:56.618Z,21.01
2022-09-12T23:41:24.429Z,20.85
2022-09-12T23:43:50.748Z,20.80
2022-09-12T23:46:18.044Z,20.79
2022-09-12T23:48:44.578Z,20.77
2022-09-12T23:51:10.993Z,20.75
2022-09-12T23:53:37.666Z,20.73
2022-09-12T23:56:04.067Z,20.70
2022-09-12T23:58:31.878Z,20.68
